EFW17EA LMML-EGKK
Flight info
| Callsign | EFW17EA |
|---|---|
| Flight time | 2h 51m |
| Altitude | 36000 |
| Route | GZO M622 SOPIR DCT ADEXI DCT GIANO DCT GILIO DCT EMBOS DCT GIPIX DCT ABESI DCT UTAVO DCT ELMUR L613 HOC DCT LUL DCT RLP DCT ROTSI DCT KOTUN DCT NINAL DCT KESAX DCT KUNAV |
| Aircraft | A320/M-SDE3FGHIRWY/LB1 |
Departure
| Time | 2026-05-05 19:23 |
|---|---|
| Airport | Malta International Airport (LMML) |
Arrival
| Time | 2026-05-05 22:14 |
|---|---|
| Airport | London Gatwick Airport (EGKK) |
| Time | Latitude | Longitude | Altitude | Speed | Heading |
|---|---|---|---|---|---|
| 2026-05-05 18:47 | 35.84861 | 14.49455 | 259 ft | 0 kts | 359° |
| 2026-05-05 19:15 | 35.84854 | 14.49456 | 259 ft | 2 kts | 360° |
| 2026-05-05 19:15 | 35.84834 | 14.49455 | 259 ft | 3 kts | 2° |
| 2026-05-05 19:15 | 35.84814 | 14.49455 | 259 ft | 3 kts | 0° |
| 2026-05-05 19:15 | 35.84794 | 14.49455 | 259 ft | 3 kts | 348° |
| 2026-05-05 19:16 | 35.84777 | 14.49462 | 259 ft | 2 kts | 319° |
| 2026-05-05 19:16 | 35.84774 | 14.49465 | 259 ft | 0 kts | 315° |
| 2026-05-05 19:18 | 35.84775 | 14.49465 | 259 ft | 0 kts | 315° |
| 2026-05-05 19:18 | 35.84793 | 14.49442 | 259 ft | 8 kts | 315° |
| 2026-05-05 19:18 | 35.84846 | 14.49375 | 259 ft | 12 kts | 314° |
| 2026-05-05 19:19 | 35.84907 | 14.49300 | 259 ft | 10 kts | 315° |
| 2026-05-05 19:19 | 35.84937 | 14.49216 | 258 ft | 11 kts | 274° |
| 2026-05-05 19:19 | 35.84898 | 14.49132 | 258 ft | 12 kts | 256° |
| 2026-05-05 19:19 | 35.84942 | 14.49043 | 258 ft | 13 kts | 307° |
| 2026-05-05 19:20 | 35.84984 | 14.48935 | 259 ft | 15 kts | 285° |
| 2026-05-05 19:20 | 35.85011 | 14.48806 | 260 ft | 16 kts | 285° |
| 2026-05-05 19:20 | 35.85048 | 14.48664 | 265 ft | 18 kts | 291° |
| 2026-05-05 19:20 | 35.85122 | 14.48524 | 271 ft | 21 kts | 316° |
| 2026-05-05 19:21 | 35.85238 | 14.48378 | 274 ft | 26 kts | 314° |
| 2026-05-05 19:21 | 35.85373 | 14.48210 | 272 ft | 29 kts | 314° |
| 2026-05-05 19:21 | 35.85497 | 14.48060 | 272 ft | 12 kts | 326° |
| 2026-05-05 19:21 | 35.85583 | 14.48045 | 272 ft | 13 kts | 348° |
| 2026-05-05 19:22 | 35.85672 | 14.47999 | 272 ft | 15 kts | 311° |
| 2026-05-05 19:22 | 35.85638 | 14.47914 | 272 ft | 10 kts | 207° |
| 2026-05-05 19:22 | 35.85577 | 14.47958 | 272 ft | 14 kts | 134° |
| 2026-05-05 19:22 | 35.85387 | 14.48195 | 272 ft | 71 kts | 134° |
| 2026-05-05 19:23 | 35.84898 | 14.48800 | 259 ft | 125 kts | 135° |
| 2026-05-05 19:23 | 35.84186 | 14.49687 | 361 ft | 157 kts | 134° |
| 2026-05-05 19:23 | 35.83419 | 14.50646 | 957 ft | 157 kts | 134° |
| 2026-05-05 19:23 | 35.82592 | 14.51507 | 1551 ft | 162 kts | 146° |
| 2026-05-05 19:24 | 35.81532 | 14.52160 | 1923 ft | 178 kts | 160° |
| 2026-05-05 19:24 | 35.80263 | 14.52472 | 2313 ft | 196 kts | 175° |
| 2026-05-05 19:24 | 35.78825 | 14.52317 | 2647 ft | 222 kts | 192° |
| 2026-05-05 19:24 | 35.77344 | 14.51477 | 3040 ft | 248 kts | 214° |
| 2026-05-05 19:25 | 35.76110 | 14.49904 | 3685 ft | 263 kts | 236° |
| 2026-05-05 19:25 | 35.75175 | 14.47964 | 4641 ft | 265 kts | 238° |
| 2026-05-05 19:25 | 35.74227 | 14.45992 | 5482 ft | 269 kts | 238° |
| 2026-05-05 19:25 | 35.73265 | 14.44012 | 6356 ft | 272 kts | 238° |
| 2026-05-05 19:26 | 35.72392 | 14.41934 | 7143 ft | 275 kts | 251° |
| 2026-05-05 19:26 | 35.72118 | 14.39601 | 7954 ft | 279 kts | 273° |
| 2026-05-05 19:26 | 35.72572 | 14.37286 | 8769 ft | 282 kts | 294° |
| 2026-05-05 19:26 | 35.73687 | 14.35298 | 9579 ft | 287 kts | 314° |
| 2026-05-05 19:27 | 35.75340 | 14.33896 | 10304 ft | 293 kts | 334° |
| 2026-05-05 19:27 | 35.77288 | 14.32976 | 10693 ft | 311 kts | 337° |
| 2026-05-05 19:27 | 35.79389 | 14.32003 | 10857 ft | 334 kts | 337° |
| 2026-05-05 19:27 | 35.81602 | 14.30967 | 11278 ft | 345 kts | 337° |
| 2026-05-05 19:28 | 35.83861 | 14.29906 | 11915 ft | 349 kts | 337° |
| 2026-05-05 19:28 | 35.86143 | 14.28833 | 12571 ft | 352 kts | 337° |
| 2026-05-05 19:28 | 35.88419 | 14.27763 | 13233 ft | 356 kts | 337° |
| 2026-05-05 19:28 | 35.90738 | 14.26671 | 13902 ft | 359 kts | 337° |
| 2026-05-05 19:29 | 35.93077 | 14.25567 | 14493 ft | 361 kts | 336° |
| 2026-05-05 19:29 | 35.95437 | 14.24452 | 15083 ft | 364 kts | 336° |
| 2026-05-05 19:29 | 35.97808 | 14.23328 | 15659 ft | 366 kts | 336° |
| 2026-05-05 19:29 | 36.00198 | 14.22196 | 16249 ft | 369 kts | 336° |
| 2026-05-05 19:30 | 36.02599 | 14.21046 | 16821 ft | 371 kts | 334° |
| 2026-05-05 19:30 | 36.04870 | 14.19538 | 17389 ft | 371 kts | 323° |
| 2026-05-05 19:30 | 36.06984 | 14.17683 | 17987 ft | 374 kts | 322° |
| 2026-05-05 19:30 | 36.09103 | 14.15804 | 18559 ft | 376 kts | 322° |
| 2026-05-05 19:31 | 36.11236 | 14.13908 | 19081 ft | 379 kts | 322° |
| 2026-05-05 19:31 | 36.13386 | 14.11994 | 19621 ft | 382 kts | 322° |
| 2026-05-05 19:31 | 36.15555 | 14.10064 | 20158 ft | 385 kts | 322° |
| 2026-05-05 19:31 | 36.17738 | 14.08124 | 20684 ft | 388 kts | 322° |
| 2026-05-05 19:32 | 36.19939 | 14.06169 | 21199 ft | 391 kts | 322° |
| 2026-05-05 19:32 | 36.22159 | 14.04199 | 21712 ft | 394 kts | 322° |
| 2026-05-05 19:32 | 36.24395 | 14.02213 | 22213 ft | 397 kts | 322° |
| 2026-05-05 19:32 | 36.26645 | 14.00211 | 22697 ft | 399 kts | 322° |
| 2026-05-05 19:33 | 36.28915 | 13.98193 | 23172 ft | 402 kts | 322° |
| 2026-05-05 19:33 | 36.31198 | 13.96165 | 23632 ft | 405 kts | 322° |
| 2026-05-05 19:33 | 36.33496 | 13.94121 | 24020 ft | 408 kts | 322° |
| 2026-05-05 19:33 | 36.35778 | 13.92086 | 24399 ft | 410 kts | 322° |
| 2026-05-05 19:34 | 36.38096 | 13.90012 | 24781 ft | 412 kts | 322° |
| 2026-05-05 19:34 | 36.40428 | 13.87925 | 25160 ft | 414 kts | 322° |
| 2026-05-05 19:34 | 36.42773 | 13.85825 | 25543 ft | 416 kts | 322° |
| 2026-05-05 19:35 | 36.47500 | 13.81602 | 26255 ft | 421 kts | 322° |
| 2026-05-05 19:35 | 36.49890 | 13.79462 | 26606 ft | 423 kts | 322° |
| 2026-05-05 19:35 | 36.52285 | 13.77314 | 26953 ft | 425 kts | 322° |
| 2026-05-05 19:35 | 36.54689 | 13.75155 | 27304 ft | 427 kts | 322° |
| 2026-05-05 19:36 | 36.57105 | 13.72985 | 27650 ft | 429 kts | 322° |
| 2026-05-05 19:36 | 36.59536 | 13.70802 | 27993 ft | 432 kts | 322° |
| 2026-05-05 19:36 | 36.61980 | 13.68605 | 28336 ft | 434 kts | 322° |
| 2026-05-05 19:36 | 36.64439 | 13.66396 | 28681 ft | 436 kts | 322° |
| 2026-05-05 19:37 | 36.66899 | 13.64182 | 29006 ft | 438 kts | 321° |
| 2026-05-05 19:37 | 36.69374 | 13.61950 | 29345 ft | 440 kts | 321° |
| 2026-05-05 19:37 | 36.71856 | 13.59708 | 29701 ft | 441 kts | 321° |
| 2026-05-05 19:37 | 36.74335 | 13.57464 | 30175 ft | 439 kts | 321° |
| 2026-05-05 19:38 | 36.76803 | 13.55228 | 30586 ft | 438 kts | 321° |
| 2026-05-05 19:38 | 36.79236 | 13.53027 | 30986 ft | 437 kts | 321° |
| 2026-05-05 19:38 | 36.81693 | 13.50807 | 31390 ft | 436 kts | 321° |
| 2026-05-05 19:38 | 36.84150 | 13.48588 | 31783 ft | 435 kts | 321° |
| 2026-05-05 19:39 | 36.86601 | 13.46375 | 32161 ft | 434 kts | 321° |
| 2026-05-05 19:39 | 36.89045 | 13.44165 | 32557 ft | 434 kts | 321° |
| 2026-05-05 19:39 | 36.91488 | 13.41949 | 32960 ft | 433 kts | 321° |
| 2026-05-05 19:39 | 36.93923 | 13.39735 | 33371 ft | 432 kts | 321° |
| 2026-05-05 19:40 | 36.96348 | 13.37529 | 33781 ft | 431 kts | 321° |
| 2026-05-05 19:40 | 36.98772 | 13.35319 | 34177 ft | 430 kts | 321° |
| 2026-05-05 19:40 | 37.01185 | 13.33116 | 34514 ft | 429 kts | 321° |
| 2026-05-05 19:40 | 37.03594 | 13.30916 | 34849 ft | 427 kts | 321° |
| 2026-05-05 19:41 | 37.05995 | 13.28725 | 35178 ft | 426 kts | 321° |
| 2026-05-05 19:41 | 37.08390 | 13.26542 | 35495 ft | 425 kts | 321° |
| 2026-05-05 19:41 | 37.10777 | 13.24365 | 35804 ft | 424 kts | 321° |
| 2026-05-05 19:41 | 37.13160 | 13.22187 | 36021 ft | 424 kts | 320° |
| 2026-05-05 19:42 | 37.15552 | 13.19995 | 36067 ft | 429 kts | 320° |
| 2026-05-05 19:42 | 37.20400 | 13.15539 | 36068 ft | 433 kts | 320° |
| 2026-05-05 19:43 | 37.25238 | 13.11094 | 36063 ft | 434 kts | 320° |
| 2026-05-05 19:43 | 37.30119 | 13.06613 | 36070 ft | 435 kts | 320° |
| 2026-05-05 19:44 | 37.35230 | 13.02528 | 36063 ft | 440 kts | 333° |
| 2026-05-05 19:44 | 37.41077 | 13.00109 | 36070 ft | 444 kts | 340° |
| 2026-05-05 19:45 | 37.47009 | 12.97904 | 36074 ft | 444 kts | 340° |
| 2026-05-05 19:45 | 37.52944 | 12.95694 | 36088 ft | 445 kts | 340° |
| 2026-05-05 19:46 | 37.58882 | 12.93475 | 36089 ft | 445 kts | 340° |
| 2026-05-05 19:46 | 37.64781 | 12.91258 | 36086 ft | 445 kts | 340° |
| 2026-05-05 19:47 | 37.70727 | 12.89028 | 36080 ft | 445 kts | 340° |
| 2026-05-05 19:47 | 37.76669 | 12.86806 | 36077 ft | 445 kts | 340° |
| 2026-05-05 19:48 | 37.82618 | 12.84578 | 36076 ft | 445 kts | 340° |
| 2026-05-05 19:48 | 37.88549 | 12.82343 | 36071 ft | 445 kts | 340° |
| 2026-05-05 19:49 | 37.94450 | 12.80117 | 36069 ft | 445 kts | 340° |
| 2026-05-05 19:49 | 38.00388 | 12.77869 | 36077 ft | 445 kts | 340° |
| 2026-05-05 19:50 | 38.06320 | 12.75625 | 36078 ft | 445 kts | 340° |
| 2026-05-05 19:50 | 38.12266 | 12.73374 | 36071 ft | 445 kts | 340° |
| 2026-05-05 19:51 | 38.18206 | 12.71122 | 36067 ft | 445 kts | 340° |
| 2026-05-05 19:51 | 38.24107 | 12.68875 | 36078 ft | 445 kts | 339° |
| 2026-05-05 19:52 | 38.30050 | 12.66606 | 36074 ft | 446 kts | 339° |
| 2026-05-05 19:52 | 38.35998 | 12.64340 | 36068 ft | 446 kts | 339° |
| 2026-05-05 19:53 | 38.41939 | 12.62072 | 36067 ft | 446 kts | 339° |
| 2026-05-05 19:53 | 38.47886 | 12.59805 | 36080 ft | 446 kts | 339° |
| 2026-05-05 19:54 | 38.52820 | 12.57922 | 36077 ft | 445 kts | 339° |
| 2026-05-05 19:54 | 38.58757 | 12.55643 | 36072 ft | 445 kts | 339° |
| 2026-05-05 19:55 | 38.64692 | 12.53350 | 36069 ft | 445 kts | 339° |
| 2026-05-05 19:55 | 38.70620 | 12.51060 | 36081 ft | 445 kts | 339° |
| 2026-05-05 19:56 | 38.76555 | 12.48773 | 36068 ft | 445 kts | 339° |
| 2026-05-05 19:56 | 38.82486 | 12.46489 | 36065 ft | 445 kts | 339° |
| 2026-05-05 19:57 | 38.88415 | 12.44179 | 36059 ft | 445 kts | 338° |
| 2026-05-05 19:57 | 38.94320 | 12.41766 | 36073 ft | 445 kts | 338° |
| 2026-05-05 19:58 | 39.00173 | 12.39319 | 36083 ft | 445 kts | 337° |
| 2026-05-05 19:58 | 39.06074 | 12.36852 | 36077 ft | 446 kts | 337° |
| 2026-05-05 19:59 | 39.11975 | 12.34398 | 36080 ft | 446 kts | 338° |
| 2026-05-05 19:59 | 39.17879 | 12.31955 | 36084 ft | 446 kts | 338° |
| 2026-05-05 20:00 | 39.23797 | 12.29502 | 36079 ft | 446 kts | 338° |
| 2026-05-05 20:00 | 39.29700 | 12.27029 | 36077 ft | 446 kts | 337° |
| 2026-05-05 20:01 | 39.35597 | 12.24550 | 36078 ft | 446 kts | 338° |
| 2026-05-05 20:01 | 39.41517 | 12.22081 | 36090 ft | 446 kts | 338° |
| 2026-05-05 20:02 | 39.47426 | 12.19613 | 36082 ft | 446 kts | 338° |
| 2026-05-05 20:02 | 39.53338 | 12.17129 | 36077 ft | 446 kts | 338° |
| 2026-05-05 20:03 | 39.59215 | 12.14662 | 36076 ft | 446 kts | 338° |
| 2026-05-05 20:03 | 39.65121 | 12.12177 | 36084 ft | 446 kts | 337° |
| 2026-05-05 20:04 | 39.71022 | 12.09683 | 36082 ft | 446 kts | 337° |
| 2026-05-05 20:04 | 39.76923 | 12.07185 | 36078 ft | 446 kts | 337° |
| 2026-05-05 20:05 | 39.82824 | 12.04682 | 36075 ft | 446 kts | 337° |
| 2026-05-05 20:05 | 39.88722 | 12.02173 | 36096 ft | 446 kts | 337° |
| 2026-05-05 20:06 | 39.94634 | 11.99655 | 36089 ft | 446 kts | 337° |
| 2026-05-05 20:06 | 40.00539 | 11.97136 | 36079 ft | 447 kts | 337° |
| 2026-05-05 20:07 | 40.06422 | 11.94640 | 36064 ft | 447 kts | 337° |
| 2026-05-05 20:07 | 40.12334 | 11.92109 | 36061 ft | 447 kts | 337° |
| 2026-05-05 20:08 | 40.18245 | 11.89578 | 36056 ft | 447 kts | 337° |
| 2026-05-05 20:08 | 40.24155 | 11.87039 | 36057 ft | 447 kts | 337° |
| 2026-05-05 20:09 | 40.30063 | 11.84502 | 36068 ft | 447 kts | 337° |
| 2026-05-05 20:09 | 40.35967 | 11.81961 | 36065 ft | 446 kts | 337° |
| 2026-05-05 20:10 | 40.41868 | 11.79414 | 36066 ft | 446 kts | 337° |
| 2026-05-05 20:10 | 40.47772 | 11.76863 | 36063 ft | 446 kts | 337° |
| 2026-05-05 20:11 | 40.53669 | 11.74315 | 36070 ft | 446 kts | 336° |
| 2026-05-05 20:11 | 40.59527 | 11.71775 | 36064 ft | 445 kts | 336° |
| 2026-05-05 20:12 | 40.65410 | 11.69214 | 36058 ft | 445 kts | 336° |
| 2026-05-05 20:12 | 40.71293 | 11.66652 | 36068 ft | 445 kts | 336° |
| 2026-05-05 20:13 | 40.77184 | 11.64083 | 36076 ft | 446 kts | 336° |
| 2026-05-05 20:13 | 40.83074 | 11.61507 | 36065 ft | 445 kts | 336° |
| 2026-05-05 20:14 | 40.88953 | 11.58920 | 36057 ft | 445 kts | 336° |
| 2026-05-05 20:14 | 40.94823 | 11.56347 | 36050 ft | 445 kts | 336° |
| 2026-05-05 20:15 | 41.00712 | 11.53774 | 36059 ft | 445 kts | 336° |
| 2026-05-05 20:15 | 41.06590 | 11.51190 | 36052 ft | 445 kts | 335° |
| 2026-05-05 20:16 | 41.12421 | 11.48608 | 36048 ft | 445 kts | 335° |
| 2026-05-05 20:16 | 41.18291 | 11.46000 | 36044 ft | 444 kts | 335° |
| 2026-05-05 20:17 | 41.24154 | 11.43405 | 36055 ft | 444 kts | 335° |
| 2026-05-05 20:17 | 41.30014 | 11.40816 | 36047 ft | 443 kts | 335° |
| 2026-05-05 20:18 | 41.35865 | 11.38224 | 36041 ft | 443 kts | 335° |
| 2026-05-05 20:18 | 41.41710 | 11.35618 | 36037 ft | 443 kts | 335° |
| 2026-05-05 20:19 | 41.47549 | 11.33009 | 36050 ft | 442 kts | 335° |
| 2026-05-05 20:19 | 41.53376 | 11.30399 | 36050 ft | 442 kts | 335° |
| 2026-05-05 20:20 | 41.59208 | 11.27786 | 36043 ft | 442 kts | 334° |
| 2026-05-05 20:20 | 41.65037 | 11.25175 | 36050 ft | 442 kts | 334° |
| 2026-05-05 20:21 | 41.70871 | 11.22556 | 36043 ft | 442 kts | 334° |
| 2026-05-05 20:21 | 41.76709 | 11.19923 | 36035 ft | 442 kts | 334° |
| 2026-05-05 20:22 | 41.82503 | 11.17307 | 36030 ft | 442 kts | 334° |
| 2026-05-05 20:22 | 41.88337 | 11.14667 | 36036 ft | 443 kts | 334° |
| 2026-05-05 20:23 | 41.94180 | 11.12013 | 36017 ft | 443 kts | 334° |
| 2026-05-05 20:23 | 42.00031 | 11.09356 | 36014 ft | 444 kts | 334° |
| 2026-05-05 20:24 | 42.05891 | 11.06696 | 36022 ft | 444 kts | 334° |
| 2026-05-05 20:24 | 42.11756 | 11.04031 | 36030 ft | 445 kts | 333° |
| 2026-05-05 20:25 | 42.17619 | 11.01348 | 36020 ft | 446 kts | 333° |
| 2026-05-05 20:25 | 42.23503 | 10.98658 | 36014 ft | 446 kts | 333° |
| 2026-05-05 20:26 | 42.29354 | 10.95974 | 36010 ft | 446 kts | 333° |
| 2026-05-05 20:26 | 42.35234 | 10.93276 | 36011 ft | 446 kts | 333° |
| 2026-05-05 20:27 | 42.41151 | 10.90619 | 36014 ft | 448 kts | 334° |
| 2026-05-05 20:27 | 42.47101 | 10.88104 | 36019 ft | 449 kts | 335° |
| 2026-05-05 20:28 | 42.53074 | 10.85597 | 36019 ft | 449 kts | 335° |
| 2026-05-05 20:28 | 42.59022 | 10.83055 | 36018 ft | 448 kts | 334° |
| 2026-05-05 20:29 | 42.64969 | 10.80480 | 36019 ft | 449 kts | 334° |
| 2026-05-05 20:29 | 42.70891 | 10.77930 | 36018 ft | 449 kts | 334° |
| 2026-05-05 20:30 | 42.76853 | 10.75357 | 36036 ft | 449 kts | 334° |
| 2026-05-05 20:30 | 42.82816 | 10.72766 | 36027 ft | 449 kts | 334° |
| 2026-05-05 20:31 | 42.88773 | 10.70171 | 36018 ft | 449 kts | 334° |
| 2026-05-05 20:31 | 42.94737 | 10.67592 | 36038 ft | 449 kts | 334° |
| 2026-05-05 20:32 | 43.00691 | 10.65003 | 36026 ft | 449 kts | 334° |
| 2026-05-05 20:32 | 43.06633 | 10.62396 | 36021 ft | 448 kts | 334° |
| 2026-05-05 20:33 | 43.12578 | 10.59789 | 36012 ft | 448 kts | 334° |
| 2026-05-05 20:33 | 43.18488 | 10.57192 | 36030 ft | 449 kts | 334° |
| 2026-05-05 20:34 | 43.24443 | 10.54576 | 36016 ft | 450 kts | 334° |
| 2026-05-05 20:34 | 43.30407 | 10.51967 | 36008 ft | 450 kts | 334° |
| 2026-05-05 20:35 | 43.36380 | 10.49340 | 36018 ft | 451 kts | 334° |
| 2026-05-05 20:35 | 43.42359 | 10.46692 | 36010 ft | 451 kts | 334° |
| 2026-05-05 20:36 | 43.48325 | 10.44044 | 36008 ft | 451 kts | 334° |
| 2026-05-05 20:36 | 43.54265 | 10.41405 | 36002 ft | 451 kts | 334° |
| 2026-05-05 20:37 | 43.60241 | 10.38750 | 36028 ft | 451 kts | 334° |
| 2026-05-05 20:37 | 43.66216 | 10.36089 | 36024 ft | 451 kts | 334° |
| 2026-05-05 20:38 | 43.72183 | 10.33418 | 36019 ft | 451 kts | 334° |
| 2026-05-05 20:38 | 43.78150 | 10.30741 | 36025 ft | 451 kts | 334° |
| 2026-05-05 20:39 | 43.84041 | 10.27960 | 36015 ft | 445 kts | 327° |
| 2026-05-05 20:39 | 43.89569 | 10.24230 | 36009 ft | 442 kts | 325° |
| 2026-05-05 20:40 | 43.95091 | 10.20455 | 36013 ft | 442 kts | 325° |
| 2026-05-05 20:40 | 43.99823 | 10.17605 | 36020 ft | 450 kts | 330° |
| 2026-05-05 20:41 | 44.05718 | 10.14603 | 36011 ft | 452 kts | 332° |
| 2026-05-05 20:41 | 44.12628 | 10.11200 | 36003 ft | 453 kts | 332° |
| 2026-05-05 20:42 | 44.17601 | 10.08708 | 36021 ft | 453 kts | 332° |
| 2026-05-05 20:42 | 44.23492 | 10.05706 | 35997 ft | 454 kts | 331° |
| 2026-05-05 20:43 | 44.29428 | 10.02669 | 36000 ft | 455 kts | 331° |
| 2026-05-05 20:43 | 44.35370 | 9.99640 | 35997 ft | 455 kts | 332° |
| 2026-05-05 20:44 | 44.41321 | 9.96605 | 36002 ft | 455 kts | 332° |
| 2026-05-05 20:44 | 44.47275 | 9.93556 | 35991 ft | 455 kts | 332° |
| 2026-05-05 20:45 | 44.56204 | 9.88972 | 35992 ft | 455 kts | 331° |
| 2026-05-05 20:45 | 44.62156 | 9.85907 | 36004 ft | 456 kts | 331° |
| 2026-05-05 20:46 | 44.68070 | 9.82843 | 36001 ft | 457 kts | 331° |
| 2026-05-05 20:46 | 44.74045 | 9.79755 | 35987 ft | 458 kts | 331° |
| 2026-05-05 20:47 | 44.80041 | 9.76661 | 35998 ft | 459 kts | 331° |
| 2026-05-05 20:47 | 44.86030 | 9.73548 | 35989 ft | 459 kts | 331° |
| 2026-05-05 20:48 | 44.92018 | 9.70422 | 35986 ft | 459 kts | 331° |
| 2026-05-05 20:48 | 44.98026 | 9.67286 | 36003 ft | 459 kts | 331° |
| 2026-05-05 20:49 | 45.04028 | 9.64148 | 35990 ft | 460 kts | 331° |
| 2026-05-05 20:49 | 45.09996 | 9.61022 | 36008 ft | 461 kts | 331° |
| 2026-05-05 20:50 | 45.16015 | 9.57859 | 35987 ft | 462 kts | 331° |
| 2026-05-05 20:50 | 45.22051 | 9.54677 | 36001 ft | 462 kts | 331° |
| 2026-05-05 20:51 | 45.28086 | 9.51492 | 36023 ft | 463 kts | 331° |
| 2026-05-05 20:51 | 45.34128 | 9.48289 | 36053 ft | 463 kts | 331° |
| 2026-05-05 20:52 | 45.40183 | 9.45075 | 36091 ft | 464 kts | 331° |
| 2026-05-05 20:52 | 45.46239 | 9.41877 | 36109 ft | 464 kts | 331° |
| 2026-05-05 20:53 | 45.52268 | 9.38676 | 36122 ft | 465 kts | 331° |
| 2026-05-05 20:53 | 45.58331 | 9.35443 | 36018 ft | 466 kts | 331° |
| 2026-05-05 20:54 | 45.64405 | 9.32191 | 36020 ft | 466 kts | 332° |
| 2026-05-05 20:54 | 45.70491 | 9.28920 | 36007 ft | 467 kts | 332° |
| 2026-05-05 20:55 | 45.76575 | 9.25648 | 36006 ft | 467 kts | 332° |
| 2026-05-05 20:55 | 45.82669 | 9.22366 | 36012 ft | 468 kts | 332° |
| 2026-05-05 20:56 | 45.88757 | 9.19085 | 36011 ft | 467 kts | 332° |
| 2026-05-05 20:56 | 45.94816 | 9.15795 | 36012 ft | 468 kts | 332° |
| 2026-05-05 20:57 | 46.00904 | 9.12488 | 36052 ft | 468 kts | 332° |
| 2026-05-05 20:57 | 46.06999 | 9.09176 | 36017 ft | 468 kts | 332° |
| 2026-05-05 20:58 | 46.13100 | 9.05851 | 36016 ft | 468 kts | 332° |
| 2026-05-05 20:58 | 46.18737 | 9.01492 | 36009 ft | 453 kts | 317° |
| 2026-05-05 20:59 | 46.23866 | 8.96212 | 36013 ft | 453 kts | 317° |
| 2026-05-05 20:59 | 46.29004 | 8.90931 | 36014 ft | 453 kts | 317° |
| 2026-05-05 21:00 | 46.34143 | 8.85644 | 36008 ft | 453 kts | 317° |
| 2026-05-05 21:00 | 46.39276 | 8.80343 | 36031 ft | 453 kts | 317° |
| 2026-05-05 21:01 | 46.44380 | 8.75074 | 36020 ft | 452 kts | 318° |
| 2026-05-05 21:01 | 46.49507 | 8.69771 | 35995 ft | 452 kts | 317° |
| 2026-05-05 21:02 | 46.54628 | 8.64448 | 35993 ft | 453 kts | 317° |
| 2026-05-05 21:02 | 46.59746 | 8.59106 | 35983 ft | 452 kts | 317° |
| 2026-05-05 21:03 | 46.64856 | 8.53760 | 35971 ft | 452 kts | 317° |
| 2026-05-05 21:03 | 46.69960 | 8.48419 | 35985 ft | 453 kts | 318° |
| 2026-05-05 21:04 | 46.75037 | 8.43098 | 35961 ft | 452 kts | 318° |
| 2026-05-05 21:04 | 46.80152 | 8.37731 | 35956 ft | 452 kts | 318° |
| 2026-05-05 21:05 | 46.85251 | 8.32348 | 35954 ft | 453 kts | 318° |
| 2026-05-05 21:05 | 46.90317 | 8.26982 | 35960 ft | 453 kts | 318° |
| 2026-05-05 21:06 | 46.95432 | 8.21573 | 35954 ft | 453 kts | 319° |
| 2026-05-05 21:06 | 47.00515 | 8.16188 | 35958 ft | 454 kts | 319° |
| 2026-05-05 21:07 | 47.05635 | 8.10739 | 35927 ft | 455 kts | 319° |
| 2026-05-05 21:07 | 47.10768 | 8.05268 | 35935 ft | 456 kts | 319° |
| 2026-05-05 21:08 | 47.15899 | 7.99776 | 35924 ft | 457 kts | 319° |
| 2026-05-05 21:08 | 47.21032 | 7.94251 | 35934 ft | 457 kts | 319° |
| 2026-05-05 21:09 | 47.26167 | 7.88722 | 35934 ft | 457 kts | 319° |
| 2026-05-05 21:09 | 47.31278 | 7.83227 | 35925 ft | 458 kts | 319° |
| 2026-05-05 21:10 | 47.36416 | 7.77681 | 35925 ft | 458 kts | 319° |
| 2026-05-05 21:10 | 47.41543 | 7.72099 | 35916 ft | 457 kts | 316° |
| 2026-05-05 21:11 | 47.45750 | 7.65305 | 35908 ft | 444 kts | 297° |
| 2026-05-05 21:11 | 47.48231 | 7.57098 | 35898 ft | 433 kts | 280° |
| 2026-05-05 21:12 | 47.49678 | 7.48462 | 35912 ft | 433 kts | 280° |
| 2026-05-05 21:12 | 47.51108 | 7.39862 | 35902 ft | 434 kts | 280° |
| 2026-05-05 21:13 | 47.52544 | 7.31176 | 35895 ft | 434 kts | 280° |
| 2026-05-05 21:13 | 47.53972 | 7.22483 | 35893 ft | 435 kts | 279° |
| 2026-05-05 21:14 | 47.55407 | 7.13777 | 35891 ft | 435 kts | 280° |
| 2026-05-05 21:14 | 47.56833 | 7.05070 | 35898 ft | 436 kts | 280° |
| 2026-05-05 21:15 | 47.58251 | 6.96320 | 35890 ft | 437 kts | 280° |
| 2026-05-05 21:15 | 47.59657 | 6.87610 | 35893 ft | 437 kts | 280° |
| 2026-05-05 21:16 | 47.61062 | 6.78829 | 35892 ft | 438 kts | 280° |
| 2026-05-05 21:16 | 47.62461 | 6.70018 | 35905 ft | 439 kts | 280° |
| 2026-05-05 21:17 | 47.63858 | 6.61188 | 35901 ft | 440 kts | 280° |
| 2026-05-05 21:17 | 47.65261 | 6.52339 | 35897 ft | 440 kts | 280° |
| 2026-05-05 21:18 | 47.66658 | 6.43494 | 35899 ft | 441 kts | 280° |
| 2026-05-05 21:18 | 47.68028 | 6.34689 | 35900 ft | 441 kts | 279° |
| 2026-05-05 21:19 | 47.69479 | 6.25844 | 35914 ft | 442 kts | 283° |
| 2026-05-05 21:19 | 47.71342 | 6.17116 | 35904 ft | 444 kts | 285° |
| 2026-05-05 21:20 | 47.73325 | 6.08417 | 35898 ft | 445 kts | 285° |
| 2026-05-05 21:20 | 47.75224 | 5.99683 | 35893 ft | 444 kts | 284° |
| 2026-05-05 21:21 | 47.77059 | 5.90881 | 35892 ft | 444 kts | 284° |
| 2026-05-05 21:21 | 47.78876 | 5.82102 | 35895 ft | 445 kts | 284° |
| 2026-05-05 21:22 | 47.80692 | 5.73351 | 35890 ft | 446 kts | 284° |
| 2026-05-05 21:22 | 47.82532 | 5.64527 | 35886 ft | 446 kts | 284° |
| 2026-05-05 21:23 | 47.84356 | 5.55701 | 35882 ft | 446 kts | 284° |
| 2026-05-05 21:23 | 47.86172 | 5.46855 | 35891 ft | 446 kts | 284° |
| 2026-05-05 21:24 | 47.87967 | 5.38061 | 35886 ft | 447 kts | 284° |
| 2026-05-05 21:24 | 47.89817 | 5.29222 | 35879 ft | 448 kts | 289° |
| 2026-05-05 21:25 | 47.92950 | 5.21158 | 35878 ft | 454 kts | 307° |
| 2026-05-05 21:25 | 47.97184 | 5.14121 | 35870 ft | 455 kts | 309° |
| 2026-05-05 21:26 | 48.01443 | 5.07115 | 35878 ft | 456 kts | 310° |
| 2026-05-05 21:26 | 48.05695 | 5.00091 | 35872 ft | 456 kts | 310° |
| 2026-05-05 21:27 | 48.09935 | 4.93066 | 35867 ft | 456 kts | 310° |
| 2026-05-05 21:27 | 48.14157 | 4.86047 | 35860 ft | 457 kts | 310° |
| 2026-05-05 21:28 | 48.18410 | 4.78969 | 35862 ft | 457 kts | 310° |
| 2026-05-05 21:28 | 48.22659 | 4.71875 | 35853 ft | 457 kts | 310° |
| 2026-05-05 21:29 | 48.26896 | 4.64747 | 35868 ft | 458 kts | 309° |
| 2026-05-05 21:29 | 48.31124 | 4.57604 | 35861 ft | 458 kts | 309° |
| 2026-05-05 21:30 | 48.35360 | 4.50458 | 35861 ft | 458 kts | 310° |
| 2026-05-05 21:30 | 48.38891 | 4.44510 | 35858 ft | 458 kts | 310° |
| 2026-05-05 21:31 | 48.43129 | 4.37334 | 35853 ft | 458 kts | 310° |
| 2026-05-05 21:31 | 48.47357 | 4.30145 | 35868 ft | 459 kts | 310° |
| 2026-05-05 21:32 | 48.51581 | 4.22937 | 35858 ft | 458 kts | 310° |
| 2026-05-05 21:32 | 48.55802 | 4.15728 | 35855 ft | 458 kts | 310° |
| 2026-05-05 21:33 | 48.60018 | 4.08510 | 35848 ft | 458 kts | 310° |
| 2026-05-05 21:33 | 48.64227 | 4.01283 | 35846 ft | 458 kts | 310° |
| 2026-05-05 21:34 | 48.68401 | 3.94091 | 35845 ft | 458 kts | 310° |
| 2026-05-05 21:34 | 48.72600 | 3.86843 | 35844 ft | 458 kts | 311° |
| 2026-05-05 21:35 | 48.77043 | 3.79907 | 35842 ft | 459 kts | 315° |
| 2026-05-05 21:35 | 48.81690 | 3.73237 | 35840 ft | 459 kts | 315° |
| 2026-05-05 21:36 | 48.86309 | 3.66533 | 35841 ft | 459 kts | 314° |
| 2026-05-05 21:36 | 48.90855 | 3.59720 | 35841 ft | 459 kts | 314° |
| 2026-05-05 21:37 | 48.95384 | 3.52879 | 35843 ft | 459 kts | 314° |
| 2026-05-05 21:37 | 48.99923 | 3.46042 | 35851 ft | 459 kts | 314° |
| 2026-05-05 21:38 | 49.04431 | 3.39246 | 35850 ft | 459 kts | 314° |
| 2026-05-05 21:38 | 49.08966 | 3.32394 | 35846 ft | 459 kts | 314° |
| 2026-05-05 21:39 | 49.13499 | 3.25511 | 35847 ft | 459 kts | 314° |
| 2026-05-05 21:39 | 49.18026 | 3.18613 | 35847 ft | 460 kts | 314° |
| 2026-05-05 21:40 | 49.22565 | 3.11687 | 35856 ft | 460 kts | 314° |
| 2026-05-05 21:40 | 49.27102 | 3.04768 | 35857 ft | 460 kts | 314° |
| 2026-05-05 21:41 | 49.31598 | 2.97874 | 35866 ft | 461 kts | 314° |
| 2026-05-05 21:41 | 49.36133 | 2.90911 | 35868 ft | 461 kts | 314° |
| 2026-05-05 21:42 | 49.40668 | 2.83950 | 35874 ft | 461 kts | 314° |
| 2026-05-05 21:42 | 49.45200 | 2.76956 | 35875 ft | 461 kts | 314° |
| 2026-05-05 21:43 | 49.49718 | 2.69943 | 35877 ft | 461 kts | 314° |
| 2026-05-05 21:43 | 49.54230 | 2.62909 | 35889 ft | 461 kts | 314° |
| 2026-05-05 21:44 | 49.58738 | 2.55873 | 35891 ft | 461 kts | 314° |
| 2026-05-05 21:44 | 49.63117 | 2.48736 | 35893 ft | 461 kts | 310° |
| 2026-05-05 21:45 | 49.67243 | 2.41180 | 35894 ft | 460 kts | 308° |
| 2026-05-05 21:45 | 49.71305 | 2.33529 | 35901 ft | 460 kts | 309° |
| 2026-05-05 21:46 | 49.75401 | 2.25948 | 35901 ft | 460 kts | 309° |
| 2026-05-05 21:46 | 49.79539 | 2.18402 | 35914 ft | 459 kts | 309° |
| 2026-05-05 21:47 | 49.83673 | 2.10861 | 35918 ft | 458 kts | 309° |
| 2026-05-05 21:47 | 49.87765 | 2.03341 | 35802 ft | 458 kts | 309° |
| 2026-05-05 21:48 | 49.89787 | 1.99607 | 35565 ft | 457 kts | 309° |
| 2026-05-05 21:48 | 49.91834 | 1.95824 | 35315 ft | 457 kts | 309° |
| 2026-05-05 21:48 | 49.93878 | 1.92039 | 34710 ft | 459 kts | 309° |
| 2026-05-05 21:48 | 49.95946 | 1.88209 | 33844 ft | 465 kts | 309° |
| 2026-05-05 21:49 | 49.98026 | 1.84349 | 33150 ft | 463 kts | 309° |
| 2026-05-05 21:49 | 50.00081 | 1.80527 | 32657 ft | 457 kts | 310° |
| 2026-05-05 21:49 | 50.02106 | 1.76749 | 32112 ft | 453 kts | 310° |
| 2026-05-05 21:49 | 50.04113 | 1.72997 | 31561 ft | 449 kts | 310° |
| 2026-05-05 21:50 | 50.06077 | 1.69320 | 31022 ft | 446 kts | 310° |
| 2026-05-05 21:50 | 50.08225 | 1.65875 | 30477 ft | 442 kts | 319° |
| 2026-05-05 21:50 | 50.10542 | 1.62746 | 29929 ft | 438 kts | 320° |
| 2026-05-05 21:50 | 50.12833 | 1.59647 | 29345 ft | 434 kts | 320° |
| 2026-05-05 21:51 | 50.15099 | 1.56580 | 28822 ft | 429 kts | 320° |
| 2026-05-05 21:51 | 50.17342 | 1.53537 | 28287 ft | 425 kts | 320° |
| 2026-05-05 21:51 | 50.19557 | 1.50518 | 27759 ft | 421 kts | 319° |
| 2026-05-05 21:51 | 50.21750 | 1.47523 | 27255 ft | 417 kts | 319° |
| 2026-05-05 21:52 | 50.26087 | 1.41589 | 26273 ft | 411 kts | 319° |
| 2026-05-05 21:52 | 50.28230 | 1.38653 | 25793 ft | 408 kts | 319° |
| 2026-05-05 21:52 | 50.30353 | 1.35741 | 25335 ft | 405 kts | 320° |
| 2026-05-05 21:53 | 50.32462 | 1.32848 | 24883 ft | 401 kts | 319° |
| 2026-05-05 21:53 | 50.34556 | 1.29976 | 24435 ft | 398 kts | 319° |
| 2026-05-05 21:53 | 50.36630 | 1.27127 | 23984 ft | 396 kts | 319° |
| 2026-05-05 21:53 | 50.38699 | 1.24278 | 23531 ft | 394 kts | 319° |
| 2026-05-05 21:54 | 50.40730 | 1.21480 | 23024 ft | 392 kts | 319° |
| 2026-05-05 21:54 | 50.42771 | 1.18664 | 22562 ft | 389 kts | 320° |
| 2026-05-05 21:54 | 50.44798 | 1.15861 | 22091 ft | 387 kts | 319° |
| 2026-05-05 21:54 | 50.46809 | 1.13077 | 21614 ft | 384 kts | 319° |
| 2026-05-05 21:55 | 50.48806 | 1.10308 | 21123 ft | 382 kts | 320° |
| 2026-05-05 21:55 | 50.50788 | 1.07566 | 20645 ft | 380 kts | 319° |
| 2026-05-05 21:55 | 50.52660 | 1.04644 | 20148 ft | 378 kts | 314° |
| 2026-05-05 21:55 | 50.54446 | 1.01632 | 19650 ft | 376 kts | 314° |
| 2026-05-05 21:56 | 50.56228 | 0.98630 | 19150 ft | 374 kts | 314° |
| 2026-05-05 21:56 | 50.57998 | 0.95650 | 18650 ft | 371 kts | 314° |
| 2026-05-05 21:56 | 50.59755 | 0.92687 | 18150 ft | 369 kts | 314° |
| 2026-05-05 21:56 | 50.61476 | 0.89771 | 17630 ft | 366 kts | 313° |
| 2026-05-05 21:57 | 50.63195 | 0.86844 | 17149 ft | 362 kts | 314° |
| 2026-05-05 21:57 | 50.64893 | 0.83948 | 16687 ft | 358 kts | 314° |
| 2026-05-05 21:57 | 50.66562 | 0.81108 | 16419 ft | 348 kts | 314° |
| 2026-05-05 21:57 | 50.68176 | 0.78304 | 16157 ft | 342 kts | 313° |
| 2026-05-05 21:58 | 50.69700 | 0.75445 | 15964 ft | 339 kts | 310° |
| 2026-05-05 21:58 | 50.71168 | 0.72557 | 15527 ft | 337 kts | 310° |
| 2026-05-05 21:58 | 50.72609 | 0.69666 | 15098 ft | 334 kts | 309° |
| 2026-05-05 21:58 | 50.74038 | 0.66790 | 14670 ft | 332 kts | 309° |
| 2026-05-05 21:59 | 50.75465 | 0.63931 | 14256 ft | 330 kts | 310° |
| 2026-05-05 21:59 | 50.76882 | 0.61112 | 13861 ft | 327 kts | 310° |
| 2026-05-05 21:59 | 50.78296 | 0.58313 | 13428 ft | 324 kts | 310° |
| 2026-05-05 21:59 | 50.79519 | 0.55339 | 12984 ft | 324 kts | 295° |
| 2026-05-05 22:00 | 50.80349 | 0.52030 | 12537 ft | 322 kts | 292° |
| 2026-05-05 22:00 | 50.81110 | 0.48710 | 12111 ft | 320 kts | 291° |
| 2026-05-05 22:00 | 50.81851 | 0.45439 | 11697 ft | 318 kts | 291° |
| 2026-05-05 22:00 | 50.82605 | 0.42160 | 11300 ft | 316 kts | 291° |
| 2026-05-05 22:01 | 50.83353 | 0.38900 | 10906 ft | 314 kts | 291° |
| 2026-05-05 22:01 | 50.84088 | 0.35692 | 10713 ft | 305 kts | 291° |
| 2026-05-05 22:01 | 50.84794 | 0.32589 | 10590 ft | 295 kts | 291° |
| 2026-05-05 22:01 | 50.85480 | 0.29564 | 10436 ft | 290 kts | 291° |
| 2026-05-05 22:02 | 50.86157 | 0.26571 | 10188 ft | 288 kts | 291° |
| 2026-05-05 22:02 | 50.86830 | 0.23585 | 9949 ft | 287 kts | 291° |
| 2026-05-05 22:02 | 50.87496 | 0.20622 | 9689 ft | 286 kts | 291° |
| 2026-05-05 22:02 | 50.88160 | 0.17662 | 9421 ft | 284 kts | 291° |
| 2026-05-05 22:03 | 50.88822 | 0.14722 | 9154 ft | 283 kts | 291° |
| 2026-05-05 22:03 | 50.89480 | 0.11791 | 8886 ft | 281 kts | 291° |
| 2026-05-05 22:03 | 50.90133 | 0.08876 | 8620 ft | 280 kts | 291° |
| 2026-05-05 22:03 | 50.90779 | 0.05979 | 8357 ft | 279 kts | 291° |
| 2026-05-05 22:04 | 50.91422 | 0.03086 | 8102 ft | 277 kts | 291° |
| 2026-05-05 22:04 | 50.92058 | 0.00208 | 7840 ft | 276 kts | 291° |
| 2026-05-05 22:04 | 50.92691 | -0.02664 | 7578 ft | 275 kts | 291° |
| 2026-05-05 22:04 | 50.93320 | -0.05520 | 7324 ft | 274 kts | 291° |
| 2026-05-05 22:05 | 50.93950 | -0.08374 | 7082 ft | 273 kts | 291° |
| 2026-05-05 22:05 | 50.94576 | -0.11211 | 6831 ft | 272 kts | 291° |
| 2026-05-05 22:05 | 50.95204 | -0.14047 | 6582 ft | 272 kts | 291° |
| 2026-05-05 22:05 | 50.95829 | -0.16865 | 6338 ft | 271 kts | 291° |
| 2026-05-05 22:06 | 50.96445 | -0.19643 | 6076 ft | 270 kts | 291° |
| 2026-05-05 22:06 | 50.97074 | -0.22480 | 5814 ft | 269 kts | 291° |
| 2026-05-05 22:06 | 50.97685 | -0.25244 | 5547 ft | 268 kts | 291° |
| 2026-05-05 22:06 | 50.98308 | -0.28064 | 5294 ft | 267 kts | 291° |
| 2026-05-05 22:07 | 50.98911 | -0.30800 | 5041 ft | 266 kts | 291° |
| 2026-05-05 22:07 | 50.99521 | -0.33566 | 4794 ft | 266 kts | 291° |
| 2026-05-05 22:07 | 51.00132 | -0.36334 | 4532 ft | 264 kts | 291° |
| 2026-05-05 22:07 | 51.00734 | -0.39053 | 4325 ft | 258 kts | 291° |
| 2026-05-05 22:08 | 51.01321 | -0.41708 | 4141 ft | 251 kts | 291° |
| 2026-05-05 22:08 | 51.01894 | -0.44291 | 3959 ft | 244 kts | 291° |
| 2026-05-05 22:08 | 51.02529 | -0.46740 | 3776 ft | 236 kts | 306° |
| 2026-05-05 22:08 | 51.03703 | -0.48400 | 3622 ft | 223 kts | 335° |
| 2026-05-05 22:09 | 51.05090 | -0.49361 | 3496 ft | 213 kts | 340° |
| 2026-05-05 22:09 | 51.06491 | -0.49864 | 3356 ft | 202 kts | 7° |
| 2026-05-05 22:09 | 51.07743 | -0.49094 | 3236 ft | 190 kts | 35° |
| 2026-05-05 22:09 | 51.08767 | -0.47820 | 3117 ft | 184 kts | 40° |
| 2026-05-05 22:10 | 51.09736 | -0.46502 | 3021 ft | 182 kts | 41° |
| 2026-05-05 22:10 | 51.10690 | -0.45177 | 3010 ft | 182 kts | 45° |
| 2026-05-05 22:10 | 51.11379 | -0.43510 | 3010 ft | 182 kts | 70° |
| 2026-05-05 22:10 | 51.11682 | -0.41543 | 2890 ft | 184 kts | 77° |
| 2026-05-05 22:11 | 51.11955 | -0.39575 | 2638 ft | 180 kts | 77° |
| 2026-05-05 22:11 | 51.12216 | -0.37707 | 2407 ft | 170 kts | 77° |
| 2026-05-05 22:11 | 51.12468 | -0.35906 | 2183 ft | 157 kts | 77° |
| 2026-05-05 22:11 | 51.12695 | -0.34282 | 1971 ft | 144 kts | 77° |
| 2026-05-05 22:12 | 51.12904 | -0.32772 | 1783 ft | 137 kts | 78° |
| 2026-05-05 22:12 | 51.13102 | -0.31327 | 1606 ft | 134 kts | 78° |
| 2026-05-05 22:12 | 51.13306 | -0.29872 | 1418 ft | 135 kts | 78° |
| 2026-05-05 22:12 | 51.13510 | -0.28420 | 1236 ft | 135 kts | 78° |
| 2026-05-05 22:13 | 51.13714 | -0.26962 | 1065 ft | 135 kts | 77° |
| 2026-05-05 22:13 | 51.13915 | -0.25499 | 855 ft | 136 kts | 77° |
| 2026-05-05 22:13 | 51.14117 | -0.24028 | 677 ft | 135 kts | 77° |
| 2026-05-05 22:13 | 51.14323 | -0.22561 | 466 ft | 136 kts | 76° |
| 2026-05-05 22:14 | 51.14529 | -0.21087 | 314 ft | 136 kts | 76° |
| 2026-05-05 22:14 | 51.14732 | -0.19641 | 214 ft | 122 kts | 78° |
| 2026-05-05 22:14 | 51.14878 | -0.18575 | 208 ft | 74 kts | 77° |
| 2026-05-05 22:14 | 51.14964 | -0.17952 | 209 ft | 45 kts | 78° |
| 2026-05-05 22:15 | 51.15018 | -0.17569 | 217 ft | 34 kts | 76° |
| 2026-05-05 22:15 | 51.15085 | -0.17295 | 212 ft | 12 kts | 59° |
| 2026-05-05 22:15 | 51.15133 | -0.17216 | 209 ft | 6 kts | 20° |
| 2026-05-05 22:15 | 51.15142 | -0.17214 | 208 ft | 1 kts | 7° |
| 2026-05-05 22:16 | 51.15175 | -0.17210 | 206 ft | 9 kts | 6° |
| 2026-05-05 22:16 | 51.15248 | -0.17183 | 213 ft | 12 kts | 40° |
| 2026-05-05 22:16 | 51.15274 | -0.17035 | 211 ft | 15 kts | 78° |
| 2026-05-05 22:16 | 51.15297 | -0.16871 | 205 ft | 13 kts | 78° |
| 2026-05-05 22:17 | 51.15315 | -0.16740 | 205 ft | 12 kts | 73° |
| 2026-05-05 22:17 | 51.15354 | -0.16618 | 208 ft | 11 kts | 77° |
| 2026-05-05 22:17 | 51.15370 | -0.16516 | 207 ft | 9 kts | 62° |
| 2026-05-05 22:17 | 51.15406 | -0.16506 | 205 ft | 8 kts | 351° |
| 2026-05-05 22:18 | 51.15460 | -0.16523 | 205 ft | 6 kts | 352° |
| 2026-05-05 22:18 | 51.15486 | -0.16458 | 208 ft | 5 kts | 76° |
| 2026-05-05 22:18 | 51.15489 | -0.16441 | 207 ft | 1 kts | 77° |